sensor_id;sensor_type;location;lat;lon;timestamp;P1;durP1;ratioP1;P2;durP2;ratioP2
21337;SDS011;10827;50.878;4.382;2022-09-21T00:02:07;16.97;;;8.23;;
21337;SDS011;10827;50.878;4.382;2022-09-21T00:04:33;21.80;;;7.87;;
21337;SDS011;10827;50.878;4.382;2022-09-21T00:06:59;18.33;;;7.63;;
21337;SDS011;10827;50.878;4.382;2022-09-21T00:09:25;18.27;;;8.67;;
21337;SDS011;10827;50.878;4.382;2022-09-21T00:11:51;19.70;;;8.73;;
21337;SDS011;10827;50.878;4.382;2022-09-21T00:14:18;19.20;;;8.83;;
21337;SDS011;10827;50.878;4.382;2022-09-21T00:16:44;17.00;;;8.40;;
21337;SDS011;10827;50.878;4.382;2022-09-21T00:19:10;16.60;;;8.43;;
21337;SDS011;10827;50.878;4.382;2022-09-21T00:21:36;16.57;;;8.27;;
21337;SDS011;10827;50.878;4.382;2022-09-21T00:24:03;17.93;;;8.90;;
21337;SDS011;10827;50.878;4.382;2022-09-21T00:26:30;19.63;;;9.40;;
21337;SDS011;10827;50.878;4.382;2022-09-21T00:28:57;17.77;;;8.40;;
21337;SDS011;10827;50.878;4.382;2022-09-21T00:31:24;14.90;;;7.80;;
21337;SDS011;10827;50.878;4.382;2022-09-21T00:33:51;19.00;;;8.67;;
21337;SDS011;10827;50.878;4.382;2022-09-21T00:36:18;16.60;;;7.63;;
21337;SDS011;10827;50.878;4.382;2022-09-21T00:38:52;17.63;;;8.37;;
21337;SDS011;10827;50.878;4.382;2022-09-21T00:41:20;16.93;;;8.83;;
21337;SDS011;10827;50.878;4.382;2022-09-21T00:43:48;22.13;;;8.97;;
21337;SDS011;10827;50.878;4.382;2022-09-21T00:46:42;18.77;;;8.77;;
21337;SDS011;10827;50.878;4.382;2022-09-21T00:49:10;18.47;;;8.73;;
21337;SDS011;10827;50.878;4.382;2022-09-21T00:51:37;18.37;;;8.90;;
21337;SDS011;10827;50.878;4.382;2022-09-21T00:54:04;15.10;;;8.40;;
21337;SDS011;10827;50.878;4.382;2022-09-21T00:56:39;15.07;;;8.80;;
21337;SDS011;10827;50.878;4.382;2022-09-21T00:59:06;18.53;;;9.53;;
21337;SDS011;10827;50.878;4.382;2022-09-21T01:01:33;20.57;;;9.43;;
21337;SDS011;10827;50.878;4.382;2022-09-21T01:04:00;15.10;;;8.10;;
21337;SDS011;10827;50.878;4.382;2022-09-21T01:06:27;16.73;;;8.87;;
21337;SDS011;10827;50.878;4.382;2022-09-21T01:08:53;16.07;;;7.80;;
21337;SDS011;10827;50.878;4.382;2022-09-21T01:16:47;14.23;;;7.77;;
21337;SDS011;10827;50.878;4.382;2022-09-21T01:23:01;17.17;;;8.20;;
21337;SDS011;10827;50.878;4.382;2022-09-21T01:30:06;16.63;;;8.50;;
21337;SDS011;10827;50.878;4.382;2022-09-21T01:33:02;15.30;;;8.40;;
21337;SDS011;10827;50.878;4.382;2022-09-21T01:35:47;18.87;;;8.30;;
21337;SDS011;10827;50.878;4.382;2022-09-21T01:38:34;16.80;;;8.53;;
21337;SDS011;10827;50.878;4.382;2022-09-21T01:41:03;15.00;;;8.03;;
21337;SDS011;10827;50.878;4.382;2022-09-21T01:43:33;15.60;;;8.43;;
21337;SDS011;10827;50.878;4.382;2022-09-21T01:46:01;17.00;;;7.80;;
21337;SDS011;10827;50.878;4.382;2022-09-21T01:48:31;18.03;;;8.80;;
21337;SDS011;10827;50.878;4.382;2022-09-21T01:51:00;15.77;;;8.33;;
21337;SDS011;10827;50.878;4.382;2022-09-21T01:53:36;16.20;;;8.63;;
21337;SDS011;10827;50.878;4.382;2022-09-21T01:56:27;13.73;;;8.60;;
21337;SDS011;10827;50.878;4.382;2022-09-21T01:59:02;15.33;;;8.63;;
21337;SDS011;10827;50.878;4.382;2022-09-21T02:01:37;20.57;;;8.40;;
21337;SDS011;10827;50.878;4.382;2022-09-21T02:04:17;19.17;;;8.73;;
21337;SDS011;10827;50.878;4.382;2022-09-21T02:06:44;20.23;;;8.77;;
21337;SDS011;10827;50.878;4.382;2022-09-21T02:09:11;18.00;;;8.93;;
21337;SDS011;10827;50.878;4.382;2022-09-21T02:11:38;16.40;;;8.60;;
21337;SDS011;10827;50.878;4.382;2022-09-21T02:14:07;15.17;;;9.13;;
21337;SDS011;10827;50.878;4.382;2022-09-21T02:21:43;15.43;;;8.20;;
21337;SDS011;10827;50.878;4.382;2022-09-21T02:27:05;20.60;;;8.07;;
21337;SDS011;10827;50.878;4.382;2022-09-21T02:43:00;13.80;;;8.03;;
21337;SDS011;10827;50.878;4.382;2022-09-21T02:45:31;16.50;;;8.30;;
21337;SDS011;10827;50.878;4.382;2022-09-21T02:48:10;18.73;;;8.13;;
21337;SDS011;10827;50.878;4.382;2022-09-21T02:50:43;15.50;;;7.57;;
21337;SDS011;10827;50.878;4.382;2022-09-21T02:53:11;14.47;;;7.63;;
21337;SDS011;10827;50.878;4.382;2022-09-21T02:55:42;10.83;;;7.20;;
21337;SDS011;10827;50.878;4.382;2022-09-21T02:58:09;20.13;;;7.30;;
21337;SDS011;10827;50.878;4.382;2022-09-21T03:00:39;15.57;;;7.87;;
21337;SDS011;10827;50.878;4.382;2022-09-21T03:03:18;12.97;;;7.60;;
21337;SDS011;10827;50.878;4.382;2022-09-21T03:05:47;15.43;;;7.70;;
21337;SDS011;10827;50.878;4.382;2022-09-21T03:08:15;15.77;;;6.47;;
21337;SDS011;10827;50.878;4.382;2022-09-21T03:10:42;13.60;;;7.23;;
21337;SDS011;10827;50.878;4.382;2022-09-21T03:13:08;14.63;;;7.03;;
21337;SDS011;10827;50.878;4.382;2022-09-21T03:15:37;12.20;;;7.70;;
21337;SDS011;10827;50.878;4.382;2022-09-21T03:18:05;13.43;;;8.00;;
21337;SDS011;10827;50.878;4.382;2022-09-21T03:20:35;14.50;;;8.07;;
21337;SDS011;10827;50.878;4.382;2022-09-21T03:23:05;15.60;;;7.17;;
21337;SDS011;10827;50.878;4.382;2022-09-21T03:25:31;15.60;;;7.47;;
21337;SDS011;10827;50.878;4.382;2022-09-21T03:27:57;15.33;;;6.63;;
21337;SDS011;10827;50.878;4.382;2022-09-21T03:30:25;14.50;;;6.87;;
21337;SDS011;10827;50.878;4.382;2022-09-21T03:32:51;14.37;;;7.23;;
21337;SDS011;10827;50.878;4.382;2022-09-21T03:35:18;13.87;;;7.07;;
21337;SDS011;10827;50.878;4.382;2022-09-21T03:37:46;13.90;;;6.90;;
21337;SDS011;10827;50.878;4.382;2022-09-21T03:40:12;14.80;;;6.73;;
21337;SDS011;10827;50.878;4.382;2022-09-21T03:42:39;11.63;;;7.00;;
21337;SDS011;10827;50.878;4.382;2022-09-21T03:45:06;14.50;;;7.30;;
21337;SDS011;10827;50.878;4.382;2022-09-21T03:47:33;13.67;;;7.43;;
21337;SDS011;10827;50.878;4.382;2022-09-21T03:49:59;19.60;;;7.83;;
21337;SDS011;10827;50.878;4.382;2022-09-21T03:52:25;12.67;;;7.60;;
21337;SDS011;10827;50.878;4.382;2022-09-21T03:54:51;17.07;;;8.07;;
21337;SDS011;10827;50.878;4.382;2022-09-21T03:57:17;14.00;;;7.03;;
21337;SDS011;10827;50.878;4.382;2022-09-21T03:59:42;12.83;;;7.53;;
21337;SDS011;10827;50.878;4.382;2022-09-21T04:02:08;16.30;;;7.73;;
21337;SDS011;10827;50.878;4.382;2022-09-21T04:04:34;14.07;;;6.90;;
21337;SDS011;10827;50.878;4.382;2022-09-21T04:07:01;14.83;;;7.17;;
21337;SDS011;10827;50.878;4.382;2022-09-21T04:09:27;14.83;;;8.10;;
21337;SDS011;10827;50.878;4.382;2022-09-21T04:11:53;18.97;;;7.70;;
21337;SDS011;10827;50.878;4.382;2022-09-21T04:14:19;10.97;;;7.10;;
21337;SDS011;10827;50.878;4.382;2022-09-21T04:16:46;15.70;;;7.63;;
21337;SDS011;10827;50.878;4.382;2022-09-21T04:19:11;14.20;;;7.70;;
21337;SDS011;10827;50.878;4.382;2022-09-21T04:21:37;14.57;;;7.70;;
21337;SDS011;10827;50.878;4.382;2022-09-21T04:24:03;16.60;;;7.97;;
21337;SDS011;10827;50.878;4.382;2022-09-21T04:26:32;16.17;;;7.97;;
21337;SDS011;10827;50.878;4.382;2022-09-21T04:28:59;14.17;;;8.03;;
21337;SDS011;10827;50.878;4.382;2022-09-21T04:31:26;18.07;;;8.27;;
21337;SDS011;10827;50.878;4.382;2022-09-21T04:33:53;13.10;;;8.30;;
21337;SDS011;10827;50.878;4.382;2022-09-21T04:36:21;15.00;;;8.47;;
21337;SDS011;10827;50.878;4.382;2022-09-21T04:38:47;16.27;;;8.30;;
21337;SDS011;10827;50.878;4.382;2022-09-21T04:41:14;14.23;;;8.17;;
21337;SDS011;10827;50.878;4.382;2022-09-21T04:43:41;18.87;;;8.97;;
21337;SDS011;10827;50.878;4.382;2022-09-21T04:46:09;21.00;;;8.80;;
21337;SDS011;10827;50.878;4.382;2022-09-21T04:48:45;14.90;;;8.70;;
21337;SDS011;10827;50.878;4.382;2022-09-21T04:51:11;14.83;;;8.80;;
21337;SDS011;10827;50.878;4.382;2022-09-21T04:53:39;17.73;;;8.97;;
21337;SDS011;10827;50.878;4.382;2022-09-21T04:56:06;21.60;;;8.60;;
21337;SDS011;10827;50.878;4.382;2022-09-21T04:58:33;21.47;;;10.07;;
21337;SDS011;10827;50.878;4.382;2022-09-21T05:01:00;15.40;;;9.17;;
21337;SDS011;10827;50.878;4.382;2022-09-21T05:03:26;18.93;;;9.33;;
21337;SDS011;10827;50.878;4.382;2022-09-21T05:05:53;22.70;;;9.37;;
21337;SDS011;10827;50.878;4.382;2022-09-21T05:08:20;22.60;;;8.97;;
21337;SDS011;10827;50.878;4.382;2022-09-21T05:11:07;18.57;;;8.10;;
21337;SDS011;10827;50.878;4.382;2022-09-21T05:13:37;24.30;;;9.13;;
21337;SDS011;10827;50.878;4.382;2022-09-21T05:16:06;24.63;;;8.97;;
21337;SDS011;10827;50.878;4.382;2022-09-21T05:18:32;20.63;;;8.60;;
21337;SDS011;10827;50.878;4.382;2022-09-21T05:20:59;18.53;;;8.07;;
21337;SDS011;10827;50.878;4.382;2022-09-21T05:23:25;20.77;;;8.77;;
21337;SDS011;10827;50.878;4.382;2022-09-21T05:25:53;18.80;;;9.23;;
21337;SDS011;10827;50.878;4.382;2022-09-21T05:28:20;22.63;;;8.77;;
21337;SDS011;10827;50.878;4.382;2022-09-21T05:31:34;30.07;;;9.87;;
21337;SDS011;10827;50.878;4.382;2022-09-21T05:33:43;17.97;;;8.70;;
21337;SDS011;10827;50.878;4.382;2022-09-21T05:39:43;24.67;;;8.60;;
21337;SDS011;10827;50.878;4.382;2022-09-21T05:42:10;23.17;;;9.67;;
21337;SDS011;10827;50.878;4.382;2022-09-21T05:44:36;23.83;;;10.30;;
21337;SDS011;10827;50.878;4.382;2022-09-21T05:47:03;20.17;;;10.80;;
21337;SDS011;10827;50.878;4.382;2022-09-21T05:52:51;23.40;;;11.57;;
21337;SDS011;10827;50.878;4.382;2022-09-21T05:55:36;24.03;;;11.70;;
21337;SDS011;10827;50.878;4.382;2022-09-21T06:03:53;24.43;;;10.93;;
21337;SDS011;10827;50.878;4.382;2022-09-21T06:06:20;29.10;;;11.37;;
21337;SDS011;10827;50.878;4.382;2022-09-21T06:08:46;27.17;;;10.87;;
21337;SDS011;10827;50.878;4.382;2022-09-21T06:11:13;42.47;;;11.73;;
21337;SDS011;10827;50.878;4.382;2022-09-21T06:13:38;26.07;;;10.90;;
21337;SDS011;10827;50.878;4.382;2022-09-21T06:16:08;28.83;;;10.47;;
21337;SDS011;10827;50.878;4.382;2022-09-21T06:18:38;33.83;;;11.80;;
21337;SDS011;10827;50.878;4.382;2022-09-21T06:21:05;40.83;;;12.13;;
21337;SDS011;10827;50.878;4.382;2022-09-21T06:23:31;36.30;;;12.53;;
21337;SDS011;10827;50.878;4.382;2022-09-21T06:25:57;30.03;;;11.50;;
21337;SDS011;10827;50.878;4.382;2022-09-21T06:28:23;30.93;;;11.93;;
21337;SDS011;10827;50.878;4.382;2022-09-21T06:30:50;27.50;;;11.13;;
21337;SDS011;10827;50.878;4.382;2022-09-21T06:33:17;33.80;;;12.67;;
21337;SDS011;10827;50.878;4.382;2022-09-21T06:35:51;32.50;;;12.83;;
21337;SDS011;10827;50.878;4.382;2022-09-21T06:38:22;36.57;;;13.97;;
21337;SDS011;10827;50.878;4.382;2022-09-21T06:40:51;30.97;;;13.07;;
21337;SDS011;10827;50.878;4.382;2022-09-21T06:43:24;27.37;;;13.13;;
21337;SDS011;10827;50.878;4.382;2022-09-21T06:45:54;30.10;;;12.77;;
21337;SDS011;10827;50.878;4.382;2022-09-21T06:48:22;29.60;;;11.73;;
21337;SDS011;10827;50.878;4.382;2022-09-21T06:50:48;26.37;;;13.10;;
21337;SDS011;10827;50.878;4.382;2022-09-21T06:53:15;24.83;;;12.37;;
21337;SDS011;10827;50.878;4.382;2022-09-21T06:55:44;31.07;;;13.23;;
21337;SDS011;10827;50.878;4.382;2022-09-21T06:58:09;41.07;;;12.90;;
21337;SDS011;10827;50.878;4.382;2022-09-21T07:00:35;27.33;;;15.87;;
21337;SDS011;10827;50.878;4.382;2022-09-21T07:03:01;30.63;;;14.10;;
21337;SDS011;10827;50.878;4.382;2022-09-21T07:05:27;31.80;;;13.03;;
21337;SDS011;10827;50.878;4.382;2022-09-21T07:07:57;29.83;;;13.67;;
21337;SDS011;10827;50.878;4.382;2022-09-21T07:10:23;38.80;;;13.43;;
21337;SDS011;10827;50.878;4.382;2022-09-21T07:12:49;31.13;;;14.97;;
21337;SDS011;10827;50.878;4.382;2022-09-21T07:15:17;29.90;;;14.40;;
21337;SDS011;10827;50.878;4.382;2022-09-21T07:17:45;43.67;;;15.10;;
21337;SDS011;10827;50.878;4.382;2022-09-21T07:20:11;44.43;;;15.37;;
21337;SDS011;10827;50.878;4.382;2022-09-21T07:22:37;48.00;;;14.57;;
21337;SDS011;10827;50.878;4.382;2022-09-21T07:25:03;53.33;;;17.30;;
21337;SDS011;10827;50.878;4.382;2022-09-21T07:27:30;46.73;;;15.93;;
21337;SDS011;10827;50.878;4.382;2022-09-21T07:29:57;49.63;;;15.70;;
21337;SDS011;10827;50.878;4.382;2022-09-21T07:32:23;47.60;;;18.27;;
21337;SDS011;10827;50.878;4.382;2022-09-21T07:34:50;44.17;;;18.30;;
21337;SDS011;10827;50.878;4.382;2022-09-21T07:37:20;40.37;;;17.03;;
21337;SDS011;10827;50.878;4.382;2022-09-21T07:39:48;34.80;;;16.80;;
21337;SDS011;10827;50.878;4.382;2022-09-21T07:42:14;54.13;;;17.20;;
21337;SDS011;10827;50.878;4.382;2022-09-21T07:44:40;37.60;;;16.57;;
21337;SDS011;10827;50.878;4.382;2022-09-21T07:47:05;30.87;;;16.17;;
21337;SDS011;10827;50.878;4.382;2022-09-21T07:49:31;31.03;;;16.57;;
21337;SDS011;10827;50.878;4.382;2022-09-21T07:51:57;37.17;;;16.27;;
21337;SDS011;10827;50.878;4.382;2022-09-21T07:54:23;38.00;;;17.10;;
21337;SDS011;10827;50.878;4.382;2022-09-21T07:56:49;33.70;;;16.57;;
21337;SDS011;10827;50.878;4.382;2022-09-21T07:59:33;29.30;;;15.37;;
21337;SDS011;10827;50.878;4.382;2022-09-21T08:01:59;35.80;;;16.07;;
21337;SDS011;10827;50.878;4.382;2022-09-21T08:04:25;30.03;;;16.07;;
21337;SDS011;10827;50.878;4.382;2022-09-21T08:06:51;38.13;;;17.40;;
21337;SDS011;10827;50.878;4.382;2022-09-21T08:09:17;30.63;;;15.53;;
21337;SDS011;10827;50.878;4.382;2022-09-21T08:11:43;32.53;;;15.57;;
21337;SDS011;10827;50.878;4.382;2022-09-21T08:14:10;35.20;;;14.87;;
21337;SDS011;10827;50.878;4.382;2022-09-21T08:16:43;34.00;;;14.50;;
21337;SDS011;10827;50.878;4.382;2022-09-21T08:19:11;34.07;;;15.23;;
21337;SDS011;10827;50.878;4.382;2022-09-21T08:21:37;31.80;;;15.83;;
21337;SDS011;10827;50.878;4.382;2022-09-21T08:24:04;33.30;;;17.27;;
21337;SDS011;10827;50.878;4.382;2022-09-21T08:26:30;32.47;;;15.73;;
21337;SDS011;10827;50.878;4.382;2022-09-21T08:28:55;30.77;;;15.30;;
21337;SDS011;10827;50.878;4.382;2022-09-21T08:31:22;30.17;;;15.73;;
21337;SDS011;10827;50.878;4.382;2022-09-21T08:33:50;29.77;;;15.23;;
21337;SDS011;10827;50.878;4.382;2022-09-21T08:36:17;29.03;;;15.20;;
21337;SDS011;10827;50.878;4.382;2022-09-21T08:38:44;32.70;;;14.53;;
21337;SDS011;10827;50.878;4.382;2022-09-21T08:41:12;33.13;;;14.33;;
21337;SDS011;10827;50.878;4.382;2022-09-21T08:43:48;29.00;;;14.83;;
21337;SDS011;10827;50.878;4.382;2022-09-21T08:46:20;31.57;;;14.37;;
21337;SDS011;10827;50.878;4.382;2022-09-21T08:51:41;29.40;;;14.53;;
21337;SDS011;10827;50.878;4.382;2022-09-21T08:54:23;34.50;;;16.13;;
21337;SDS011;10827;50.878;4.382;2022-09-21T08:56:51;32.23;;;13.43;;
21337;SDS011;10827;50.878;4.382;2022-09-21T08:59:18;32.57;;;15.30;;
21337;SDS011;10827;50.878;4.382;2022-09-21T09:12:36;18.30;;;9.73;;
21337;SDS011;10827;50.878;4.382;2022-09-21T09:20:04;17.00;;;8.70;;
21337;SDS011;10827;50.878;4.382;2022-09-21T09:22:39;22.70;;;8.10;;
21337;SDS011;10827;50.878;4.382;2022-09-21T09:25:20;23.20;;;9.37;;
21337;SDS011;10827;50.878;4.382;2022-09-21T09:27:48;13.40;;;7.37;;
21337;SDS011;10827;50.878;4.382;2022-09-21T09:30:27;11.73;;;6.63;;
21337;SDS011;10827;50.878;4.382;2022-09-21T09:33:02;14.20;;;5.97;;
21337;SDS011;10827;50.878;4.382;2022-09-21T09:35:37;11.67;;;5.20;;
21337;SDS011;10827;50.878;4.382;2022-09-21T09:38:24;32.47;;;5.87;;
21337;SDS011;10827;50.878;4.382;2022-09-21T09:46:23;10.50;;;4.30;;
21337;SDS011;10827;50.878;4.382;2022-09-21T09:49:21;7.30;;;3.13;;
21337;SDS011;10827;50.878;4.382;2022-09-21T09:51:49;9.47;;;2.90;;
21337;SDS011;10827;50.878;4.382;2022-09-21T09:54:16;9.73;;;3.13;;
21337;SDS011;10827;50.878;4.382;2022-09-21T09:56:43;5.53;;;2.70;;
21337;SDS011;10827;50.878;4.382;2022-09-21T09:59:52;27.47;;;8.03;;
21337;SDS011;10827;50.878;4.382;2022-09-21T10:04:26;13.70;;;3.77;;
21337;SDS011;10827;50.878;4.382;2022-09-21T10:06:52;9.33;;;3.73;;
21337;SDS011;10827;50.878;4.382;2022-09-21T10:09:28;7.50;;;3.23;;
21337;SDS011;10827;50.878;4.382;2022-09-21T10:14:52;7.50;;;2.93;;
21337;SDS011;10827;50.878;4.382;2022-09-21T10:17:22;6.47;;;2.27;;
21337;SDS011;10827;50.878;4.382;2022-09-21T10:19:59;6.73;;;2.90;;
21337;SDS011;10827;50.878;4.382;2022-09-21T10:22:30;6.33;;;2.63;;
21337;SDS011;10827;50.878;4.382;2022-09-21T10:24:56;10.03;;;3.60;;
21337;SDS011;10827;50.878;4.382;2022-09-21T10:27:33;7.07;;;2.60;;
21337;SDS011;10827;50.878;4.382;2022-09-21T10:30:01;8.93;;;6.20;;
21337;SDS011;10827;50.878;4.382;2022-09-21T10:32:27;9.57;;;1.67;;
21337;SDS011;10827;50.878;4.382;2022-09-21T10:37:30;6.10;;;2.53;;
21337;SDS011;10827;50.878;4.382;2022-09-21T10:40:24;5.60;;;2.00;;
21337;SDS011;10827;50.878;4.382;2022-09-21T10:42:53;6.27;;;1.47;;
21337;SDS011;10827;50.878;4.382;2022-09-21T10:50:43;3.87;;;1.57;;
21337;SDS011;10827;50.878;4.382;2022-09-21T10:53:26;6.67;;;1.40;;
21337;SDS011;10827;50.878;4.382;2022-09-21T10:56:01;6.50;;;1.70;;
21337;SDS011;10827;50.878;4.382;2022-09-21T10:58:28;8.67;;;3.00;;
21337;SDS011;10827;50.878;4.382;2022-09-21T11:00:54;4.80;;;2.00;;
21337;SDS011;10827;50.878;4.382;2022-09-21T11:06:16;10.30;;;1.70;;
21337;SDS011;10827;50.878;4.382;2022-09-21T11:08:54;3.17;;;1.40;;
21337;SDS011;10827;50.878;4.382;2022-09-21T11:14:25;7.90;;;2.10;;
21337;SDS011;10827;50.878;4.382;2022-09-21T11:25:17;9.90;;;2.10;;
21337;SDS011;10827;50.878;4.382;2022-09-21T11:27:44;8.37;;;1.77;;
21337;SDS011;10827;50.878;4.382;2022-09-21T11:30:16;4.10;;;2.30;;
21337;SDS011;10827;50.878;4.382;2022-09-21T11:35:47;4.13;;;1.50;;
21337;SDS011;10827;50.878;4.382;2022-09-21T11:46:33;9.53;;;1.57;;
21337;SDS011;10827;50.878;4.382;2022-09-21T11:55:19;17.73;;;2.10;;
21337;SDS011;10827;50.878;4.382;2022-09-21T12:01:00;4.70;;;1.27;;
21337;SDS011;10827;50.878;4.382;2022-09-21T12:03:48;22.17;;;10.20;;
21337;SDS011;10827;50.878;4.382;2022-09-21T12:09:18;7.07;;;1.83;;
21337;SDS011;10827;50.878;4.382;2022-09-21T12:14:41;5.83;;;2.70;;
21337;SDS011;10827;50.878;4.382;2022-09-21T12:23:20;21.27;;;2.13;;
21337;SDS011;10827;50.878;4.382;2022-09-21T12:25:53;11.30;;;2.30;;
21337;SDS011;10827;50.878;4.382;2022-09-21T12:28:43;15.23;;;2.33;;
21337;SDS011;10827;50.878;4.382;2022-09-21T12:31:14;15.03;;;1.97;;
21337;SDS011;10827;50.878;4.382;2022-09-21T12:33:50;5.20;;;1.20;;
21337;SDS011;10827;50.878;4.382;2022-09-21T12:36:39;5.50;;;1.40;;
21337;SDS011;10827;50.878;4.382;2022-09-21T12:39:17;5.03;;;1.30;;
21337;SDS011;10827;50.878;4.382;2022-09-21T12:41:56;7.97;;;1.20;;
21337;SDS011;10827;50.878;4.382;2022-09-21T12:47:18;6.83;;;1.50;;
21337;SDS011;10827;50.878;4.382;2022-09-21T12:50:11;2.15;;;1.30;;
21337;SDS011;10827;50.878;4.382;2022-09-21T12:52:45;5.73;;;1.40;;
21337;SDS011;10827;50.878;4.382;2022-09-21T12:55:22;2.53;;;1.10;;
21337;SDS011;10827;50.878;4.382;2022-09-21T13:08:46;7.67;;;2.07;;
21337;SDS011;10827;50.878;4.382;2022-09-21T13:11:13;5.23;;;1.53;;
21337;SDS011;10827;50.878;4.382;2022-09-21T13:14:03;12.97;;;2.30;;
21337;SDS011;10827;50.878;4.382;2022-09-21T13:22:31;10.90;;;1.50;;
21337;SDS011;10827;50.878;4.382;2022-09-21T13:24:40;10.10;;;2.15;;
21337;SDS011;10827;50.878;4.382;2022-09-21T13:27:09;8.07;;;2.10;;
21337;SDS011;10827;50.878;4.382;2022-09-21T13:29:36;7.38;;;1.73;;
21337;SDS011;10827;50.878;4.382;2022-09-21T13:34:36;8.57;;;1.83;;
21337;SDS011;10827;50.878;4.382;2022-09-21T13:39:49;3.50;;;1.13;;
21337;SDS011;10827;50.878;4.382;2022-09-21T13:47:41;3.25;;;1.60;;
21337;SDS011;10827;50.878;4.382;2022-09-21T13:52:48;4.75;;;1.60;;
21337;SDS011;10827;50.878;4.382;2022-09-21T13:57:56;7.83;;;1.70;;
21337;SDS011;10827;50.878;4.382;2022-09-21T14:00:42;9.07;;;1.87;;
21337;SDS011;10827;50.878;4.382;2022-09-21T14:03:20;7.67;;;1.90;;
21337;SDS011;10827;50.878;4.382;2022-09-21T14:05:53;7.33;;;1.80;;
21337;SDS011;10827;50.878;4.382;2022-09-21T14:08:29;5.50;;;1.67;;
21337;SDS011;10827;50.878;4.382;2022-09-21T14:10:59;12.60;;;1.73;;
21337;SDS011;10827;50.878;4.382;2022-09-21T14:13:35;6.30;;;1.50;;
21337;SDS011;10827;50.878;4.382;2022-09-21T14:18:53;6.57;;;1.60;;
21337;SDS011;10827;50.878;4.382;2022-09-21T14:21:20;4.67;;;1.50;;
21337;SDS011;10827;50.878;4.382;2022-09-21T14:29:07;5.67;;;1.60;;
21337;SDS011;10827;50.878;4.382;2022-09-21T14:31:57;4.90;;;1.70;;
21337;SDS011;10827;50.878;4.382;2022-09-21T14:34:29;2.80;;;1.33;;
21337;SDS011;10827;50.878;4.382;2022-09-21T14:37:01;8.13;;;1.60;;
21337;SDS011;10827;50.878;4.382;2022-09-21T14:39:32;5.37;;;1.67;;
21337;SDS011;10827;50.878;4.382;2022-09-21T14:42:06;5.93;;;1.90;;
21337;SDS011;10827;50.878;4.382;2022-09-21T14:44:36;3.90;;;1.27;;
21337;SDS011;10827;50.878;4.382;2022-09-21T14:47:15;5.68;;;1.42;;
21337;SDS011;10827;50.878;4.382;2022-09-21T14:50:23;3.15;;;1.70;;
21337;SDS011;10827;50.878;4.382;2022-09-21T15:00:45;3.83;;;1.30;;
21337;SDS011;10827;50.878;4.382;2022-09-21T15:06:10;5.72;;;2.00;;
21337;SDS011;10827;50.878;4.382;2022-09-21T15:12:18;7.28;;;1.80;;
21337;SDS011;10827;50.878;4.382;2022-09-21T15:15:04;7.30;;;1.67;;
21337;SDS011;10827;50.878;4.382;2022-09-21T15:17:56;6.78;;;1.80;;
21337;SDS011;10827;50.878;4.382;2022-09-21T15:20:24;3.00;;;1.35;;
21337;SDS011;10827;50.878;4.382;2022-09-21T15:22:55;4.95;;;1.45;;
21337;SDS011;10827;50.878;4.382;2022-09-21T15:25:23;4.40;;;1.77;;
21337;SDS011;10827;50.878;4.382;2022-09-21T15:27:52;5.93;;;1.70;;
21337;SDS011;10827;50.878;4.382;2022-09-21T15:30:20;3.40;;;1.33;;
21337;SDS011;10827;50.878;4.382;2022-09-21T15:33:00;4.38;;;1.50;;
21337;SDS011;10827;50.878;4.382;2022-09-21T15:35:27;6.45;;;1.90;;
21337;SDS011;10827;50.878;4.382;2022-09-21T15:37:56;7.10;;;2.08;;
21337;SDS011;10827;50.878;4.382;2022-09-21T15:48:32;5.60;;;2.15;;
21337;SDS011;10827;50.878;4.382;2022-09-21T15:53:47;5.40;;;2.00;;
21337;SDS011;10827;50.878;4.382;2022-09-21T15:56:17;6.05;;;1.90;;
21337;SDS011;10827;50.878;4.382;2022-09-21T15:58:49;7.88;;;2.65;;
21337;SDS011;10827;50.878;4.382;2022-09-21T16:01:22;6.10;;;2.03;;
21337;SDS011;10827;50.878;4.382;2022-09-21T16:03:48;6.70;;;1.88;;
21337;SDS011;10827;50.878;4.382;2022-09-21T16:06:43;4.43;;;1.77;;
21337;SDS011;10827;50.878;4.382;2022-09-21T16:11:51;11.20;;;2.13;;
21337;SDS011;10827;50.878;4.382;2022-09-21T16:14:18;7.27;;;1.80;;
21337;SDS011;10827;50.878;4.382;2022-09-21T16:17:22;10.67;;;1.90;;
21337;SDS011;10827;50.878;4.382;2022-09-21T16:22:29;9.20;;;2.10;;
21337;SDS011;10827;50.878;4.382;2022-09-21T16:24:59;8.03;;;1.87;;
21337;SDS011;10827;50.878;4.382;2022-09-21T16:27:26;7.37;;;2.30;;
21337;SDS011;10827;50.878;4.382;2022-09-21T16:29:54;8.17;;;2.70;;
21337;SDS011;10827;50.878;4.382;2022-09-21T16:37:51;4.57;;;2.10;;
21337;SDS011;10827;50.878;4.382;2022-09-21T16:40:23;9.70;;;2.93;;
21337;SDS011;10827;50.878;4.382;2022-09-21T16:42:50;8.33;;;2.37;;
21337;SDS011;10827;50.878;4.382;2022-09-21T16:45:21;5.53;;;2.47;;
21337;SDS011;10827;50.878;4.382;2022-09-21T16:47:55;7.83;;;2.23;;
21337;SDS011;10827;50.878;4.382;2022-09-21T16:50:21;9.37;;;2.33;;
21337;SDS011;10827;50.878;4.382;2022-09-21T16:52:48;6.53;;;2.20;;
21337;SDS011;10827;50.878;4.382;2022-09-21T16:55:19;8.67;;;2.50;;
21337;SDS011;10827;50.878;4.382;2022-09-21T16:57:46;6.63;;;2.10;;
21337;SDS011;10827;50.878;4.382;2022-09-21T17:00:13;7.33;;;2.17;;
21337;SDS011;10827;50.878;4.382;2022-09-21T17:02:46;9.03;;;2.73;;
21337;SDS011;10827;50.878;4.382;2022-09-21T17:05:12;5.83;;;2.70;;
21337;SDS011;10827;50.878;4.382;2022-09-21T17:07:52;11.97;;;2.63;;
21337;SDS011;10827;50.878;4.382;2022-09-21T17:10:19;10.00;;;3.00;;
21337;SDS011;10827;50.878;4.382;2022-09-21T17:12:53;6.63;;;2.53;;
21337;SDS011;10827;50.878;4.382;2022-09-21T17:15:20;9.93;;;3.30;;
21337;SDS011;10827;50.878;4.382;2022-09-21T17:17:47;6.87;;;2.40;;
21337;SDS011;10827;50.878;4.382;2022-09-21T17:20:15;10.50;;;3.50;;
21337;SDS011;10827;50.878;4.382;2022-09-21T17:22:45;8.30;;;2.53;;
21337;SDS011;10827;50.878;4.382;2022-09-21T17:25:12;9.97;;;3.57;;
21337;SDS011;10827;50.878;4.382;2022-09-21T17:27:38;13.07;;;6.07;;
21337;SDS011;10827;50.878;4.382;2022-09-21T17:30:10;13.83;;;3.20;;
21337;SDS011;10827;50.878;4.382;2022-09-21T17:32:37;6.10;;;2.50;;
21337;SDS011;10827;50.878;4.382;2022-09-21T17:35:16;6.47;;;2.47;;
21337;SDS011;10827;50.878;4.382;2022-09-21T17:37:47;7.57;;;3.20;;
21337;SDS011;10827;50.878;4.382;2022-09-21T17:40:13;13.33;;;4.17;;
21337;SDS011;10827;50.878;4.382;2022-09-21T17:42:40;10.53;;;3.93;;
21337;SDS011;10827;50.878;4.382;2022-09-21T17:47:38;16.80;;;4.53;;
21337;SDS011;10827;50.878;4.382;2022-09-21T17:52:40;12.97;;;4.70;;
21337;SDS011;10827;50.878;4.382;2022-09-21T17:55:25;16.13;;;4.80;;
21337;SDS011;10827;50.878;4.382;2022-09-21T18:03:36;9.60;;;3.73;;
21337;SDS011;10827;50.878;4.382;2022-09-21T18:06:07;8.07;;;3.10;;
21337;SDS011;10827;50.878;4.382;2022-09-21T18:08:34;9.37;;;3.60;;
21337;SDS011;10827;50.878;4.382;2022-09-21T18:16:25;7.13;;;3.43;;
21337;SDS011;10827;50.878;4.382;2022-09-21T18:19:02;12.87;;;4.50;;
21337;SDS011;10827;50.878;4.382;2022-09-21T18:21:51;15.32;;;6.18;;
21337;SDS011;10827;50.878;4.382;2022-09-21T18:24:26;12.67;;;6.13;;
21337;SDS011;10827;50.878;4.382;2022-09-21T18:26:56;7.47;;;3.47;;
21337;SDS011;10827;50.878;4.382;2022-09-21T18:29:26;9.93;;;3.70;;
21337;SDS011;10827;50.878;4.382;2022-09-21T18:39:53;11.53;;;3.60;;
21337;SDS011;10827;50.878;4.382;2022-09-21T18:45:24;8.93;;;3.97;;
21337;SDS011;10827;50.878;4.382;2022-09-21T18:50:25;8.93;;;4.30;;
21337;SDS011;10827;50.878;4.382;2022-09-21T18:55:38;12.03;;;4.80;;
21337;SDS011;10827;50.878;4.382;2022-09-21T18:58:05;12.73;;;5.00;;
21337;SDS011;10827;50.878;4.382;2022-09-21T19:00:32;15.10;;;6.13;;